sensor_id;sensor_type;location;lat;lon;timestamp;P1;durP1;ratioP1;P2;durP2;ratioP2
27428;SDS011;14881;48.092;11.574;2022-10-16T00:02:02;4.45;;;2.35;;
27428;SDS011;14881;48.092;11.574;2022-10-16T00:04:29;8.27;;;2.40;;
27428;SDS011;14881;48.092;11.574;2022-10-16T00:06:57;12.75;;;2.85;;
27428;SDS011;14881;48.092;11.574;2022-10-16T00:09:25;6.63;;;2.35;;
27428;SDS011;14881;48.092;11.574;2022-10-16T00:11:54;5.45;;;2.65;;
27428;SDS011;14881;48.092;11.574;2022-10-16T00:14:21;7.55;;;2.50;;
27428;SDS011;14881;48.092;11.574;2022-10-16T00:16:49;4.30;;;2.78;;
27428;SDS011;14881;48.092;11.574;2022-10-16T00:19:17;5.82;;;2.40;;
27428;SDS011;14881;48.092;11.574;2022-10-16T00:21:44;5.22;;;2.33;;
27428;SDS011;14881;48.092;11.574;2022-10-16T00:24:12;7.15;;;2.55;;
27428;SDS011;14881;48.092;11.574;2022-10-16T00:26:40;3.28;;;2.30;;
27428;SDS011;14881;48.092;11.574;2022-10-16T00:29:09;8.70;;;2.53;;
27428;SDS011;14881;48.092;11.574;2022-10-16T00:31:37;5.88;;;2.35;;
27428;SDS011;14881;48.092;11.574;2022-10-16T00:34:04;4.32;;;2.17;;
27428;SDS011;14881;48.092;11.574;2022-10-16T00:36:32;4.85;;;2.05;;
27428;SDS011;14881;48.092;11.574;2022-10-16T00:39:00;8.73;;;2.40;;
27428;SDS011;14881;48.092;11.574;2022-10-16T00:41:28;8.88;;;2.83;;
27428;SDS011;14881;48.092;11.574;2022-10-16T00:43:57;10.80;;;3.08;;
27428;SDS011;14881;48.092;11.574;2022-10-16T00:46:28;3.33;;;2.47;;
27428;SDS011;14881;48.092;11.574;2022-10-16T00:48:59;5.47;;;2.17;;
27428;SDS011;14881;48.092;11.574;2022-10-16T00:51:31;2.97;;;2.35;;
27428;SDS011;14881;48.092;11.574;2022-10-16T00:54:01;4.05;;;2.30;;
27428;SDS011;14881;48.092;11.574;2022-10-16T00:56:31;4.72;;;2.53;;
27428;SDS011;14881;48.092;11.574;2022-10-16T00:58:59;9.20;;;2.47;;
27428;SDS011;14881;48.092;11.574;2022-10-16T01:01:32;12.77;;;2.90;;
27428;SDS011;14881;48.092;11.574;2022-10-16T01:04:00;6.20;;;2.40;;
27428;SDS011;14881;48.092;11.574;2022-10-16T01:06:29;7.70;;;2.63;;
27428;SDS011;14881;48.092;11.574;2022-10-16T01:09:07;12.27;;;2.58;;
27428;SDS011;14881;48.092;11.574;2022-10-16T01:11:44;4.50;;;2.20;;
27428;SDS011;14881;48.092;11.574;2022-10-16T01:14:22;8.82;;;2.60;;
27428;SDS011;14881;48.092;11.574;2022-10-16T01:16:57;5.53;;;2.72;;
27428;SDS011;14881;48.092;11.574;2022-10-16T01:19:36;7.80;;;2.20;;
27428;SDS011;14881;48.092;11.574;2022-10-16T01:22:11;7.15;;;2.42;;
27428;SDS011;14881;48.092;11.574;2022-10-16T01:24:41;10.32;;;2.20;;
27428;SDS011;14881;48.092;11.574;2022-10-16T01:27:15;9.57;;;2.40;;
27428;SDS011;14881;48.092;11.574;2022-10-16T01:29:49;7.25;;;2.30;;
27428;SDS011;14881;48.092;11.574;2022-10-16T01:32:24;9.32;;;2.50;;
27428;SDS011;14881;48.092;11.574;2022-10-16T01:34:59;5.13;;;2.40;;
27428;SDS011;14881;48.092;11.574;2022-10-16T01:37:32;9.32;;;2.75;;
27428;SDS011;14881;48.092;11.574;2022-10-16T01:40:06;6.82;;;2.28;;
27428;SDS011;14881;48.092;11.574;2022-10-16T01:42:38;5.95;;;2.05;;
27428;SDS011;14881;48.092;11.574;2022-10-16T01:45:11;8.43;;;2.10;;
27428;SDS011;14881;48.092;11.574;2022-10-16T01:47:41;4.85;;;2.13;;
27428;SDS011;14881;48.092;11.574;2022-10-16T01:50:10;8.75;;;2.53;;
27428;SDS011;14881;48.092;11.574;2022-10-16T01:52:40;5.22;;;2.20;;
27428;SDS011;14881;48.092;11.574;2022-10-16T01:55:12;11.88;;;3.03;;
27428;SDS011;14881;48.092;11.574;2022-10-16T01:57:45;14.30;;;2.53;;
27428;SDS011;14881;48.092;11.574;2022-10-16T02:00:16;5.35;;;2.33;;
27428;SDS011;14881;48.092;11.574;2022-10-16T02:02:47;10.15;;;2.83;;
27428;SDS011;14881;48.092;11.574;2022-10-16T02:05:20;14.65;;;2.60;;
27428;SDS011;14881;48.092;11.574;2022-10-16T02:07:52;5.97;;;2.13;;
27428;SDS011;14881;48.092;11.574;2022-10-16T02:10:20;5.97;;;1.88;;
27428;SDS011;14881;48.092;11.574;2022-10-16T02:12:52;9.02;;;2.63;;
27428;SDS011;14881;48.092;11.574;2022-10-16T02:15:24;11.82;;;1.92;;
27428;SDS011;14881;48.092;11.574;2022-10-16T02:17:52;9.32;;;2.17;;
27428;SDS011;14881;48.092;11.574;2022-10-16T02:20:20;7.07;;;2.15;;
27428;SDS011;14881;48.092;11.574;2022-10-16T02:22:54;9.75;;;2.40;;
27428;SDS011;14881;48.092;11.574;2022-10-16T02:25:24;7.00;;;2.22;;
27428;SDS011;14881;48.092;11.574;2022-10-16T02:27:58;7.53;;;2.72;;
27428;SDS011;14881;48.092;11.574;2022-10-16T02:30:30;9.60;;;2.25;;
27428;SDS011;14881;48.092;11.574;2022-10-16T02:33:02;4.07;;;2.63;;
27428;SDS011;14881;48.092;11.574;2022-10-16T02:35:32;5.78;;;2.00;;
27428;SDS011;14881;48.092;11.574;2022-10-16T02:38:01;6.95;;;2.38;;
27428;SDS011;14881;48.092;11.574;2022-10-16T02:40:29;5.60;;;2.50;;
27428;SDS011;14881;48.092;11.574;2022-10-16T02:42:58;13.18;;;2.75;;
27428;SDS011;14881;48.092;11.574;2022-10-16T02:45:26;7.15;;;2.53;;
27428;SDS011;14881;48.092;11.574;2022-10-16T02:47:53;5.05;;;2.10;;
27428;SDS011;14881;48.092;11.574;2022-10-16T02:50:21;10.00;;;2.58;;
27428;SDS011;14881;48.092;11.574;2022-10-16T02:52:50;4.68;;;2.30;;
27428;SDS011;14881;48.092;11.574;2022-10-16T02:55:18;8.50;;;2.10;;
27428;SDS011;14881;48.092;11.574;2022-10-16T02:57:45;8.63;;;2.35;;
27428;SDS011;14881;48.092;11.574;2022-10-16T03:00:15;6.47;;;2.30;;
27428;SDS011;14881;48.092;11.574;2022-10-16T03:02:44;7.13;;;2.05;;
27428;SDS011;14881;48.092;11.574;2022-10-16T03:05:12;6.65;;;1.80;;
27428;SDS011;14881;48.092;11.574;2022-10-16T03:07:40;4.47;;;2.35;;
27428;SDS011;14881;48.092;11.574;2022-10-16T03:10:08;4.70;;;2.05;;
27428;SDS011;14881;48.092;11.574;2022-10-16T03:12:36;7.65;;;2.70;;
27428;SDS011;14881;48.092;11.574;2022-10-16T03:15:04;6.28;;;2.00;;
27428;SDS011;14881;48.092;11.574;2022-10-16T03:17:34;9.93;;;2.60;;
27428;SDS011;14881;48.092;11.574;2022-10-16T03:20:02;2.97;;;2.03;;
27428;SDS011;14881;48.092;11.574;2022-10-16T03:22:30;8.90;;;2.80;;
27428;SDS011;14881;48.092;11.574;2022-10-16T03:24:58;6.32;;;1.80;;
27428;SDS011;14881;48.092;11.574;2022-10-16T03:27:25;2.92;;;2.00;;
27428;SDS011;14881;48.092;11.574;2022-10-16T03:29:54;4.35;;;2.00;;
27428;SDS011;14881;48.092;11.574;2022-10-16T03:32:21;5.10;;;2.50;;
27428;SDS011;14881;48.092;11.574;2022-10-16T03:34:52;8.43;;;2.50;;
27428;SDS011;14881;48.092;11.574;2022-10-16T03:37:20;4.65;;;1.92;;
27428;SDS011;14881;48.092;11.574;2022-10-16T03:39:48;6.22;;;2.00;;
27428;SDS011;14881;48.092;11.574;2022-10-16T03:42:15;4.85;;;2.15;;
27428;SDS011;14881;48.092;11.574;2022-10-16T03:44:43;9.88;;;2.75;;
27428;SDS011;14881;48.092;11.574;2022-10-16T03:47:11;5.50;;;2.10;;
27428;SDS011;14881;48.092;11.574;2022-10-16T03:49:38;6.20;;;2.58;;
27428;SDS011;14881;48.092;11.574;2022-10-16T03:52:07;6.32;;;2.60;;
27428;SDS011;14881;48.092;11.574;2022-10-16T03:54:35;3.05;;;2.65;;
27428;SDS011;14881;48.092;11.574;2022-10-16T03:57:03;4.97;;;2.25;;
27428;SDS011;14881;48.092;11.574;2022-10-16T03:59:30;6.75;;;2.70;;
27428;SDS011;14881;48.092;11.574;2022-10-16T04:01:58;5.78;;;1.92;;
27428;SDS011;14881;48.092;11.574;2022-10-16T04:04:26;4.88;;;2.50;;
27428;SDS011;14881;48.092;11.574;2022-10-16T04:06:53;3.63;;;2.10;;
27428;SDS011;14881;48.092;11.574;2022-10-16T04:09:22;2.05;;;1.90;;
27428;SDS011;14881;48.092;11.574;2022-10-16T04:11:50;8.10;;;2.40;;
27428;SDS011;14881;48.092;11.574;2022-10-16T04:14:17;6.38;;;1.83;;
27428;SDS011;14881;48.092;11.574;2022-10-16T04:16:45;3.17;;;1.50;;
27428;SDS011;14881;48.092;11.574;2022-10-16T04:19:13;8.45;;;2.10;;
27428;SDS011;14881;48.092;11.574;2022-10-16T04:21:41;4.40;;;1.92;;
27428;SDS011;14881;48.092;11.574;2022-10-16T04:24:08;8.60;;;1.98;;
27428;SDS011;14881;48.092;11.574;2022-10-16T04:26:38;2.75;;;1.80;;
27428;SDS011;14881;48.092;11.574;2022-10-16T04:29:05;9.80;;;2.13;;
27428;SDS011;14881;48.092;11.574;2022-10-16T04:31:33;7.60;;;2.13;;
27428;SDS011;14881;48.092;11.574;2022-10-16T04:34:01;5.95;;;1.85;;
27428;SDS011;14881;48.092;11.574;2022-10-16T04:36:28;4.18;;;1.80;;
27428;SDS011;14881;48.092;11.574;2022-10-16T04:38:56;3.50;;;1.60;;
27428;SDS011;14881;48.092;11.574;2022-10-16T04:41:24;5.78;;;2.22;;
27428;SDS011;14881;48.092;11.574;2022-10-16T04:43:53;11.73;;;2.22;;
27428;SDS011;14881;48.092;11.574;2022-10-16T04:46:21;3.92;;;1.98;;
27428;SDS011;14881;48.092;11.574;2022-10-16T04:48:48;6.72;;;2.10;;
27428;SDS011;14881;48.092;11.574;2022-10-16T04:51:16;8.10;;;1.95;;
27428;SDS011;14881;48.092;11.574;2022-10-16T04:53:44;4.57;;;2.35;;
27428;SDS011;14881;48.092;11.574;2022-10-16T04:56:12;9.95;;;2.70;;
27428;SDS011;14881;48.092;11.574;2022-10-16T04:58:41;8.27;;;2.38;;
27428;SDS011;14881;48.092;11.574;2022-10-16T05:01:10;12.43;;;2.40;;
27428;SDS011;14881;48.092;11.574;2022-10-16T05:03:37;6.03;;;1.90;;
27428;SDS011;14881;48.092;11.574;2022-10-16T05:06:05;3.60;;;1.98;;
27428;SDS011;14881;48.092;11.574;2022-10-16T05:08:33;7.28;;;1.92;;
27428;SDS011;14881;48.092;11.574;2022-10-16T05:11:01;8.20;;;2.28;;
27428;SDS011;14881;48.092;11.574;2022-10-16T05:13:29;5.97;;;1.95;;
27428;SDS011;14881;48.092;11.574;2022-10-16T05:15:57;9.00;;;2.08;;
27428;SDS011;14881;48.092;11.574;2022-10-16T05:18:26;3.13;;;2.05;;
27428;SDS011;14881;48.092;11.574;2022-10-16T05:20:53;9.77;;;2.80;;
27428;SDS011;14881;48.092;11.574;2022-10-16T05:23:21;8.73;;;2.13;;
27428;SDS011;14881;48.092;11.574;2022-10-16T05:25:52;12.10;;;2.25;;
27428;SDS011;14881;48.092;11.574;2022-10-16T05:28:21;6.25;;;2.05;;
27428;SDS011;14881;48.092;11.574;2022-10-16T05:30:49;5.35;;;1.92;;
27428;SDS011;14881;48.092;11.574;2022-10-16T05:33:16;4.30;;;2.03;;
27428;SDS011;14881;48.092;11.574;2022-10-16T05:35:48;4.07;;;2.20;;
27428;SDS011;14881;48.092;11.574;2022-10-16T05:38:16;4.55;;;3.00;;
27428;SDS011;14881;48.092;11.574;2022-10-16T05:40:44;4.78;;;2.28;;
27428;SDS011;14881;48.092;11.574;2022-10-16T05:43:17;6.13;;;2.13;;
27428;SDS011;14881;48.092;11.574;2022-10-16T05:45:53;5.82;;;2.38;;
27428;SDS011;14881;48.092;11.574;2022-10-16T05:50:50;4.75;;;2.10;;
27428;SDS011;14881;48.092;11.574;2022-10-16T05:55:52;7.28;;;1.75;;
27428;SDS011;14881;48.092;11.574;2022-10-16T05:58:20;4.50;;;1.90;;
27428;SDS011;14881;48.092;11.574;2022-10-16T06:00:55;5.88;;;1.98;;
27428;SDS011;14881;48.092;11.574;2022-10-16T06:03:23;6.13;;;2.38;;
27428;SDS011;14881;48.092;11.574;2022-10-16T06:05:53;3.78;;;2.25;;
27428;SDS011;14881;48.092;11.574;2022-10-16T06:08:21;4.90;;;2.30;;
27428;SDS011;14881;48.092;11.574;2022-10-16T06:10:59;6.55;;;2.63;;
27428;SDS011;14881;48.092;11.574;2022-10-16T06:13:28;7.63;;;2.15;;
27428;SDS011;14881;48.092;11.574;2022-10-16T06:15:56;4.70;;;2.08;;
27428;SDS011;14881;48.092;11.574;2022-10-16T06:18:25;3.65;;;2.30;;
27428;SDS011;14881;48.092;11.574;2022-10-16T06:20:54;7.65;;;2.63;;
27428;SDS011;14881;48.092;11.574;2022-10-16T06:23:23;2.70;;;2.13;;
27428;SDS011;14881;48.092;11.574;2022-10-16T06:25:51;7.47;;;2.20;;
27428;SDS011;14881;48.092;11.574;2022-10-16T06:28:18;4.88;;;2.08;;
27428;SDS011;14881;48.092;11.574;2022-10-16T06:30:47;6.90;;;2.17;;
27428;SDS011;14881;48.092;11.574;2022-10-16T06:33:15;11.75;;;2.42;;
27428;SDS011;14881;48.092;11.574;2022-10-16T06:35:44;6.45;;;2.13;;
27428;SDS011;14881;48.092;11.574;2022-10-16T06:38:13;5.93;;;2.03;;
27428;SDS011;14881;48.092;11.574;2022-10-16T06:40:41;5.75;;;2.20;;
27428;SDS011;14881;48.092;11.574;2022-10-16T06:43:09;9.27;;;2.55;;
27428;SDS011;14881;48.092;11.574;2022-10-16T06:45:37;3.90;;;1.80;;
27428;SDS011;14881;48.092;11.574;2022-10-16T06:48:04;2.65;;;2.10;;
27428;SDS011;14881;48.092;11.574;2022-10-16T06:50:32;5.07;;;2.35;;
27428;SDS011;14881;48.092;11.574;2022-10-16T06:53:00;4.43;;;1.98;;
27428;SDS011;14881;48.092;11.574;2022-10-16T06:55:30;10.75;;;2.28;;
27428;SDS011;14881;48.092;11.574;2022-10-16T06:57:58;4.38;;;1.98;;
27428;SDS011;14881;48.092;11.574;2022-10-16T07:00:25;5.55;;;2.53;;
27428;SDS011;14881;48.092;11.574;2022-10-16T07:02:53;2.20;;;2.00;;
27428;SDS011;14881;48.092;11.574;2022-10-16T07:05:21;6.20;;;2.17;;
27428;SDS011;14881;48.092;11.574;2022-10-16T07:07:48;5.00;;;2.47;;
27428;SDS011;14881;48.092;11.574;2022-10-16T07:10:16;7.55;;;2.35;;
27428;SDS011;14881;48.092;11.574;2022-10-16T07:12:45;4.28;;;2.13;;
27428;SDS011;14881;48.092;11.574;2022-10-16T07:15:12;4.22;;;2.15;;
27428;SDS011;14881;48.092;11.574;2022-10-16T07:17:40;5.00;;;2.05;;
27428;SDS011;14881;48.092;11.574;2022-10-16T07:20:08;5.43;;;2.40;;
27428;SDS011;14881;48.092;11.574;2022-10-16T07:22:36;7.68;;;2.45;;
27428;SDS011;14881;48.092;11.574;2022-10-16T07:25:05;5.03;;;2.67;;
27428;SDS011;14881;48.092;11.574;2022-10-16T07:27:33;5.25;;;3.17;;
27428;SDS011;14881;48.092;11.574;2022-10-16T07:30:06;6.45;;;3.03;;
27428;SDS011;14881;48.092;11.574;2022-10-16T07:32:35;3.38;;;2.80;;
27428;SDS011;14881;48.092;11.574;2022-10-16T07:35:03;3.65;;;2.83;;
27428;SDS011;14881;48.092;11.574;2022-10-16T07:37:31;3.22;;;2.92;;
27428;SDS011;14881;48.092;11.574;2022-10-16T07:39:59;2.60;;;2.40;;
27428;SDS011;14881;48.092;11.574;2022-10-16T07:42:27;2.75;;;2.33;;
27428;SDS011;14881;48.092;11.574;2022-10-16T07:44:54;3.83;;;2.60;;
27428;SDS011;14881;48.092;11.574;2022-10-16T07:47:23;4.78;;;2.65;;
27428;SDS011;14881;48.092;11.574;2022-10-16T07:49:51;3.58;;;2.50;;
27428;SDS011;14881;48.092;11.574;2022-10-16T07:52:19;5.20;;;2.60;;
27428;SDS011;14881;48.092;11.574;2022-10-16T07:54:46;2.63;;;2.42;;
27428;SDS011;14881;48.092;11.574;2022-10-16T07:57:14;2.42;;;2.15;;
27428;SDS011;14881;48.092;11.574;2022-10-16T07:59:45;3.10;;;2.15;;
27428;SDS011;14881;48.092;11.574;2022-10-16T08:02:13;2.38;;;2.10;;
27428;SDS011;14881;48.092;11.574;2022-10-16T08:04:42;4.28;;;1.90;;
27428;SDS011;14881;48.092;11.574;2022-10-16T08:07:09;3.70;;;2.05;;
27428;SDS011;14881;48.092;11.574;2022-10-16T08:09:37;4.43;;;2.13;;
27428;SDS011;14881;48.092;11.574;2022-10-16T08:12:05;5.88;;;2.10;;
27428;SDS011;14881;48.092;11.574;2022-10-16T08:14:32;2.40;;;2.20;;
27428;SDS011;14881;48.092;11.574;2022-10-16T08:17:00;3.22;;;2.00;;
27428;SDS011;14881;48.092;11.574;2022-10-16T08:19:30;3.70;;;2.25;;
27428;SDS011;14881;48.092;11.574;2022-10-16T08:22:01;3.65;;;2.08;;
27428;SDS011;14881;48.092;11.574;2022-10-16T08:24:29;2.85;;;2.15;;
27428;SDS011;14881;48.092;11.574;2022-10-16T08:26:58;2.33;;;1.90;;
27428;SDS011;14881;48.092;11.574;2022-10-16T08:29:26;3.47;;;2.08;;
27428;SDS011;14881;48.092;11.574;2022-10-16T08:31:53;4.93;;;1.80;;
27428;SDS011;14881;48.092;11.574;2022-10-16T08:34:21;3.22;;;1.80;;
27428;SDS011;14881;48.092;11.574;2022-10-16T08:36:49;2.08;;;1.80;;
27428;SDS011;14881;48.092;11.574;2022-10-16T08:39:18;2.45;;;1.85;;
27428;SDS011;14881;48.092;11.574;2022-10-16T08:44:52;2.50;;;1.88;;
27428;SDS011;14881;48.092;11.574;2022-10-16T08:47:34;2.55;;;1.70;;
27428;SDS011;14881;48.092;11.574;2022-10-16T08:50:11;2.10;;;1.90;;
27428;SDS011;14881;48.092;11.574;2022-10-16T08:52:41;2.15;;;1.95;;
27428;SDS011;14881;48.092;11.574;2022-10-16T08:55:16;1.88;;;1.73;;
27428;SDS011;14881;48.092;11.574;2022-10-16T08:57:55;1.70;;;1.50;;
27428;SDS011;14881;48.092;11.574;2022-10-16T09:00:23;2.53;;;1.77;;
27428;SDS011;14881;48.092;11.574;2022-10-16T09:02:55;3.67;;;1.85;;
27428;SDS011;14881;48.092;11.574;2022-10-16T09:05:36;3.08;;;1.75;;
27428;SDS011;14881;48.092;11.574;2022-10-16T09:08:17;2.90;;;1.77;;
27428;SDS011;14881;48.092;11.574;2022-10-16T09:10:57;2.63;;;1.95;;
27428;SDS011;14881;48.092;11.574;2022-10-16T09:13:29;3.05;;;1.80;;
27428;SDS011;14881;48.092;11.574;2022-10-16T09:16:10;5.00;;;1.98;;
27428;SDS011;14881;48.092;11.574;2022-10-16T09:18:45;2.05;;;1.80;;
27428;SDS011;14881;48.092;11.574;2022-10-16T09:21:19;2.13;;;1.80;;
27428;SDS011;14881;48.092;11.574;2022-10-16T09:23:50;1.60;;;1.50;;
27428;SDS011;14881;48.092;11.574;2022-10-16T09:26:20;1.50;;;1.40;;
27428;SDS011;14881;48.092;11.574;2022-10-16T09:28:49;1.50;;;1.40;;
27428;SDS011;14881;48.092;11.574;2022-10-16T09:31:20;3.72;;;1.50;;
27428;SDS011;14881;48.092;11.574;2022-10-16T09:33:50;3.40;;;1.88;;
27428;SDS011;14881;48.092;11.574;2022-10-16T09:36:22;2.00;;;1.77;;
27428;SDS011;14881;48.092;11.574;2022-10-16T09:39:01;1.67;;;1.50;;
27428;SDS011;14881;48.092;11.574;2022-10-16T09:41:33;2.20;;;2.00;;
27428;SDS011;14881;48.092;11.574;2022-10-16T09:44:04;2.40;;;1.70;;
27428;SDS011;14881;48.092;11.574;2022-10-16T09:46:34;3.97;;;1.85;;
27428;SDS011;14881;48.092;11.574;2022-10-16T09:49:04;3.25;;;1.77;;
27428;SDS011;14881;48.092;11.574;2022-10-16T09:51:46;3.58;;;2.10;;
27428;SDS011;14881;48.092;11.574;2022-10-16T09:54:15;4.20;;;1.95;;
27428;SDS011;14881;48.092;11.574;2022-10-16T09:56:45;2.95;;;1.80;;
27428;SDS011;14881;48.092;11.574;2022-10-16T09:59:18;2.38;;;1.90;;
27428;SDS011;14881;48.092;11.574;2022-10-16T10:01:47;3.15;;;2.20;;
27428;SDS011;14881;48.092;11.574;2022-10-16T10:04:17;2.22;;;2.03;;
27428;SDS011;14881;48.092;11.574;2022-10-16T10:06:46;3.13;;;1.90;;
27428;SDS011;14881;48.092;11.574;2022-10-16T10:09:17;2.50;;;1.90;;
27428;SDS011;14881;48.092;11.574;2022-10-16T10:11:50;3.88;;;2.20;;
27428;SDS011;14881;48.092;11.574;2022-10-16T10:14:21;2.00;;;1.77;;
27428;SDS011;14881;48.092;11.574;2022-10-16T10:17:02;1.83;;;1.73;;
27428;SDS011;14881;48.092;11.574;2022-10-16T10:19:38;2.42;;;1.85;;
27428;SDS011;14881;48.092;11.574;2022-10-16T10:22:16;2.30;;;1.95;;
27428;SDS011;14881;48.092;11.574;2022-10-16T10:24:46;3.10;;;1.90;;
27428;SDS011;14881;48.092;11.574;2022-10-16T10:27:25;3.72;;;2.00;;
27428;SDS011;14881;48.092;11.574;2022-10-16T10:30:01;2.90;;;1.70;;
27428;SDS011;14881;48.092;11.574;2022-10-16T10:32:40;2.35;;;1.67;;
27428;SDS011;14881;48.092;11.574;2022-10-16T10:35:18;1.60;;;1.48;;
27428;SDS011;14881;48.092;11.574;2022-10-16T10:38:04;2.03;;;1.83;;
27428;SDS011;14881;48.092;11.574;2022-10-16T10:40:43;1.52;;;1.42;;
27428;SDS011;14881;48.092;11.574;2022-10-16T10:43:23;4.00;;;1.75;;
27428;SDS011;14881;48.092;11.574;2022-10-16T10:45:59;3.30;;;1.60;;
27428;SDS011;14881;48.092;11.574;2022-10-16T10:48:40;1.83;;;1.40;;
27428;SDS011;14881;48.092;11.574;2022-10-16T10:51:20;1.52;;;1.42;;
27428;SDS011;14881;48.092;11.574;2022-10-16T10:53:55;2.28;;;1.30;;
27428;SDS011;14881;48.092;11.574;2022-10-16T10:56:39;1.45;;;1.35;;
27428;SDS011;14881;48.092;11.574;2022-10-16T10:59:19;2.92;;;1.60;;
27428;SDS011;14881;48.092;11.574;2022-10-16T11:02:05;1.00;;;1.00;;
27428;SDS011;14881;48.092;11.574;2022-10-16T11:04:49;2.80;;;1.15;;
27428;SDS011;14881;48.092;11.574;2022-10-16T11:07:25;2.17;;;1.20;;
27428;SDS011;14881;48.092;11.574;2022-10-16T11:09:57;1.15;;;1.05;;
27428;SDS011;14881;48.092;11.574;2022-10-16T11:12:30;1.25;;;1.15;;
27428;SDS011;14881;48.092;11.574;2022-10-16T11:15:04;2.63;;;1.27;;
27428;SDS011;14881;48.092;11.574;2022-10-16T11:17:40;1.75;;;1.00;;
27428;SDS011;14881;48.092;11.574;2022-10-16T11:20:13;4.47;;;1.05;;
27428;SDS011;14881;48.092;11.574;2022-10-16T11:22:44;2.38;;;1.02;;
27428;SDS011;14881;48.092;11.574;2022-10-16T11:25:18;1.20;;;0.80;;
27428;SDS011;14881;48.092;11.574;2022-10-16T11:27:50;1.27;;;0.98;;
27428;SDS011;14881;48.092;11.574;2022-10-16T11:30:24;1.60;;;1.20;;
27428;SDS011;14881;48.092;11.574;2022-10-16T11:33:00;1.50;;;1.40;;
27428;SDS011;14881;48.092;11.574;2022-10-16T11:35:39;1.27;;;1.17;;
27428;SDS011;14881;48.092;11.574;2022-10-16T11:38:13;2.75;;;1.30;;
27428;SDS011;14881;48.092;11.574;2022-10-16T11:40:47;3.88;;;1.40;;
27428;SDS011;14881;48.092;11.574;2022-10-16T11:43:21;1.42;;;1.33;;
27428;SDS011;14881;48.092;11.574;2022-10-16T11:45:55;2.38;;;0.88;;
27428;SDS011;14881;48.092;11.574;2022-10-16T11:48:27;4.45;;;0.77;;
27428;SDS011;14881;48.092;11.574;2022-10-16T11:51:00;1.63;;;0.60;;
27428;SDS011;14881;48.092;11.574;2022-10-16T11:53:39;1.10;;;0.65;;
27428;SDS011;14881;48.092;11.574;2022-10-16T11:56:19;0.70;;;0.40;;
27428;SDS011;14881;48.092;11.574;2022-10-16T11:58:51;1.38;;;0.60;;
27428;SDS011;14881;48.092;11.574;2022-10-16T12:01:26;1.75;;;0.50;;
27428;SDS011;14881;48.092;11.574;2022-10-16T12:04:04;0.73;;;0.70;;
27428;SDS011;14881;48.092;11.574;2022-10-16T12:06:40;0.60;;;0.60;;
27428;SDS011;14881;48.092;11.574;2022-10-16T12:09:13;2.33;;;0.70;;
27428;SDS011;14881;48.092;11.574;2022-10-16T12:11:46;0.50;;;0.50;;
27428;SDS011;14881;48.092;11.574;2022-10-16T12:14:19;0.70;;;0.70;;
27428;SDS011;14881;48.092;11.574;2022-10-16T12:17:24;1.02;;;0.80;;
27428;SDS011;14881;48.092;11.574;2022-10-16T12:19:57;0.80;;;0.77;;
27428;SDS011;14881;48.092;11.574;2022-10-16T12:22:27;1.45;;;0.90;;
27428;SDS011;14881;48.092;11.574;2022-10-16T12:24:57;4.47;;;0.90;;
27428;SDS011;14881;48.092;11.574;2022-10-16T12:27:27;0.90;;;0.73;;
27428;SDS011;14881;48.092;11.574;2022-10-16T12:29:57;3.03;;;0.70;;
27428;SDS011;14881;48.092;11.574;2022-10-16T12:32:29;2.25;;;0.65;;
27428;SDS011;14881;48.092;11.574;2022-10-16T12:35:17;0.50;;;0.50;;
27428;SDS011;14881;48.092;11.574;2022-10-16T12:37:46;1.92;;;0.88;;
27428;SDS011;14881;48.092;11.574;2022-10-16T12:40:15;1.00;;;0.90;;
27428;SDS011;14881;48.092;11.574;2022-10-16T12:42:52;2.63;;;1.10;;
27428;SDS011;14881;48.092;11.574;2022-10-16T12:45:24;0.60;;;0.60;;
27428;SDS011;14881;48.092;11.574;2022-10-16T12:47:56;0.70;;;0.60;;
27428;SDS011;14881;48.092;11.574;2022-10-16T12:50:29;0.80;;;0.80;;
27428;SDS011;14881;48.092;11.574;2022-10-16T12:53:00;4.32;;;1.00;;
27428;SDS011;14881;48.092;11.574;2022-10-16T12:55:32;2.55;;;0.90;;
27428;SDS011;14881;48.092;11.574;2022-10-16T12:58:13;0.85;;;0.85;;
27428;SDS011;14881;48.092;11.574;2022-10-16T13:00:52;1.33;;;0.95;;
27428;SDS011;14881;48.092;11.574;2022-10-16T13:03:35;1.40;;;0.95;;
27428;SDS011;14881;48.092;11.574;2022-10-16T13:06:23;0.90;;;0.90;;
27428;SDS011;14881;48.092;11.574;2022-10-16T13:12:08;1.42;;;1.20;;
27428;SDS011;14881;48.092;11.574;2022-10-16T13:14:51;1.25;;;0.82;;
27428;SDS011;14881;48.092;11.574;2022-10-16T13:17:30;0.88;;;0.88;;
27428;SDS011;14881;48.092;11.574;2022-10-16T13:20:10;0.75;;;0.75;;
27428;SDS011;14881;48.092;11.574;2022-10-16T13:22:46;1.13;;;1.02;;
27428;SDS011;14881;48.092;11.574;2022-10-16T13:25:25;2.35;;;0.90;;
27428;SDS011;14881;48.092;11.574;2022-10-16T13:28:02;1.58;;;1.00;;
27428;SDS011;14881;48.092;11.574;2022-10-16T13:30:33;1.20;;;1.10;;
27428;SDS011;14881;48.092;11.574;2022-10-16T13:33:07;3.42;;;1.17;;
27428;SDS011;14881;48.092;11.574;2022-10-16T13:38:17;2.80;;;1.10;;
27428;SDS011;14881;48.092;11.574;2022-10-16T13:40:50;1.65;;;0.68;;
27428;SDS011;14881;48.092;11.574;2022-10-16T13:43:20;0.95;;;0.95;;
27428;SDS011;14881;48.092;11.574;2022-10-16T13:45:55;1.27;;;1.10;;
27428;SDS011;14881;48.092;11.574;2022-10-16T13:48:25;0.95;;;0.95;;
27428;SDS011;14881;48.092;11.574;2022-10-16T13:53:44;1.05;;;1.05;;
27428;SDS011;14881;48.092;11.574;2022-10-16T13:56:13;1.55;;;1.00;;
27428;SDS011;14881;48.092;11.574;2022-10-16T13:58:43;1.63;;;1.02;;
27428;SDS011;14881;48.092;11.574;2022-10-16T14:01:15;1.00;;;0.90;;
27428;SDS011;14881;48.092;11.574;2022-10-16T14:03:45;1.33;;;1.20;;
27428;SDS011;14881;48.092;11.574;2022-10-16T14:06:16;1.38;;;1.27;;
27428;SDS011;14881;48.092;11.574;2022-10-16T14:08:48;1.08;;;0.98;;
27428;SDS011;14881;48.092;11.574;2022-10-16T14:11:26;1.10;;;1.00;;
27428;SDS011;14881;48.092;11.574;2022-10-16T14:13:54;1.10;;;1.00;;
27428;SDS011;14881;48.092;11.574;2022-10-16T14:16:23;1.10;;;1.02;;
27428;SDS011;14881;48.092;11.574;2022-10-16T14:18:55;1.92;;;0.90;;
27428;SDS011;14881;48.092;11.574;2022-10-16T14:24:12;1.92;;;1.15;;
27428;SDS011;14881;48.092;11.574;2022-10-16T14:26:41;3.33;;;1.00;;
27428;SDS011;14881;48.092;11.574;2022-10-16T14:31:53;1.55;;;1.20;;
27428;SDS011;14881;48.092;11.574;2022-10-16T14:34:23;0.93;;;0.90;;
27428;SDS011;14881;48.092;11.574;2022-10-16T14:36:53;1.27;;;0.98;;
27428;SDS011;14881;48.092;11.574;2022-10-16T14:39:23;3.63;;;1.00;;
27428;SDS011;14881;48.092;11.574;2022-10-16T14:41:54;2.13;;;0.85;;
27428;SDS011;14881;48.092;11.574;2022-10-16T14:44:26;2.60;;;1.13;;
27428;SDS011;14881;48.092;11.574;2022-10-16T14:46:57;4.22;;;1.20;;
27428;SDS011;14881;48.092;11.574;2022-10-16T14:49:25;1.63;;;1.30;;
27428;SDS011;14881;48.092;11.574;2022-10-16T14:51:54;1.42;;;1.20;;
27428;SDS011;14881;48.092;11.574;2022-10-16T14:54:24;2.38;;;0.93;;
27428;SDS011;14881;48.092;11.574;2022-10-16T14:56:52;3.10;;;1.02;;
27428;SDS011;14881;48.092;11.574;2022-10-16T14:59:24;3.20;;;1.10;;
27428;SDS011;14881;48.092;11.574;2022-10-16T15:01:56;2.75;;;1.20;;
27428;SDS011;14881;48.092;11.574;2022-10-16T15:04:23;5.65;;;1.13;;
27428;SDS011;14881;48.092;11.574;2022-10-16T15:06:51;2.53;;;1.20;;
27428;SDS011;14881;48.092;11.574;2022-10-16T15:09:19;2.45;;;1.35;;
27428;SDS011;14881;48.092;11.574;2022-10-16T15:11:48;8.02;;;1.52;;
27428;SDS011;14881;48.092;11.574;2022-10-16T15:14:16;2.58;;;1.30;;
27428;SDS011;14881;48.092;11.574;2022-10-16T15:16:43;1.35;;;1.23;;
27428;SDS011;14881;48.092;11.574;2022-10-16T15:19:12;3.75;;;1.38;;